Time;durP1;ratioP1;P1;durP2;ratioP2;P2;SDS_P1;SDS_P2;PMS_P1;PMS_P2;Temp;Humidity;BMP_temperature;BMP_pressure;BME280_temperature;BME280_humidity;BME280_pressure;Samples;Min_cycle;Max_cycle;Signal;HPM_P1;HPM_P2
2021/01/16 00:01:00;;;;;;;24.13;14.87;;;1.60;99.90;;;;;;4955294;29;20485;-24
2021/01/16 00:03:27;;;;;;;19.10;13.60;;;1.70;99.90;;;;;;4954675;29;20515;-24
2021/01/16 00:05:56;;;;;;;22.80;15.10;;;1.70;99.90;;;;;;4953792;29;20453;-24
2021/01/16 00:08:24;;;;;;;18.63;13.60;;;1.70;99.90;;;;;;4954996;29;20200;-24
2021/01/16 00:10:53;;;;;;;20.93;14.20;;;1.70;99.90;;;;;;4953583;29;20446;-24
2021/01/16 00:13:21;;;;;;;21.53;14.33;;;1.70;99.90;;;;;;4954910;29;20934;-25
2021/01/16 00:15:48;;;;;;;20.50;14.27;;;1.70;99.90;;;;;;4954479;29;20540;-24
2021/01/16 00:18:17;;;;;;;21.20;15.17;;;1.70;99.90;;;;;;4955174;28;20481;-24
2021/01/16 00:20:45;;;;;;;21.83;14.87;;;1.70;99.90;;;;;;4954458;29;20484;-24
2021/01/16 00:23:12;;;;;;;20.20;14.83;;;1.60;99.90;;;;;;4953936;29;20458;-24
2021/01/16 00:25:39;;;;;;;18.67;13.80;;;1.50;99.90;;;;;;4954257;29;20501;-24
2021/01/16 00:28:06;;;;;;;21.00;14.77;;;1.50;99.90;;;;;;4953743;29;20526;-24
2021/01/16 00:30:36;;;;;;;22.10;14.73;;;1.50;99.90;;;;;;4953948;29;20481;-24
2021/01/16 00:33:03;;;;;;;21.83;14.90;;;1.40;99.90;;;;;;4955151;29;20458;-26
2021/01/16 00:35:32;;;;;;;19.03;15.43;;;1.50;99.90;;;;;;4953898;29;20449;-26
2021/01/16 00:37:59;;;;;;;19.33;14.80;;;1.50;99.90;;;;;;4954123;29;20790;-26
2021/01/16 00:40:27;;;;;;;23.70;15.43;;;1.50;99.90;;;;;;4953786;29;20439;-25
2021/01/16 00:42:55;;;;;;;19.92;14.55;;;1.50;99.90;;;;;;4954621;29;20457;-25
2021/01/16 00:45:23;;;;;;;19.35;15.25;;;1.50;99.90;;;;;;4953634;29;20847;-25
2021/01/16 00:47:51;;;;;;;22.98;14.60;;;1.50;99.90;;;;;;4956959;29;20201;-25
2021/01/16 00:50:20;;;;;;;22.90;14.77;;;1.50;99.90;;;;;;4957974;29;20300;-25
2021/01/16 00:52:56;;;;;;;25.30;18.30;;;1.60;99.90;;;;;;4958492;29;20446;-25
2021/01/16 00:55:25;;;;;;;25.97;16.10;;;1.50;99.90;;;;;;4942265;29;20199;-25
2021/01/16 00:57:53;;;;;;;20.87;14.97;;;1.60;99.90;;;;;;4940914;29;20504;-26
2021/01/16 01:00:22;;;;;;;19.90;15.93;;;1.60;99.90;;;;;;4937707;29;20453;-25
2021/01/16 01:02:49;;;;;;;20.20;15.70;;;1.70;99.90;;;;;;4937709;29;20496;-25
2021/01/16 01:05:19;;;;;;;22.30;16.27;;;1.70;99.90;;;;;;4953709;29;20438;-25
2021/01/16 01:07:47;;;;;;;27.00;16.70;;;1.70;99.90;;;;;;4953150;29;20845;-25
2021/01/16 01:10:17;;;;;;;23.13;17.17;;;1.60;99.90;;;;;;4953866;29;20192;-25
2021/01/16 01:12:44;;;;;;;24.40;16.80;;;1.60;99.90;;;;;;4953725;29;20204;-25
2021/01/16 01:15:11;;;;;;;23.43;16.33;;;1.60;99.90;;;;;;4953797;29;20200;-25
2021/01/16 01:17:37;;;;;;;25.40;16.47;;;1.50;99.90;;;;;;4953155;29;21143;-25
2021/01/16 01:20:05;;;;;;;23.60;17.15;;;1.50;99.90;;;;;;4954005;29;20931;-26
2021/01/16 01:22:36;;;;;;;21.92;16.27;;;1.50;99.90;;;;;;4954191;29;20247;-25
2021/01/16 01:25:04;;;;;;;25.30;16.95;;;1.60;99.90;;;;;;4953768;29;20251;-25
2021/01/16 01:27:32;;;;;;;23.83;18.20;;;1.60;99.90;;;;;;4953785;29;20319;-25
2021/01/16 01:29:59;;;;;;;23.10;16.10;;;1.60;99.90;;;;;;4952876;28;20455;-25
2021/01/16 01:32:26;;;;;;;25.13;18.10;;;1.60;99.90;;;;;;4952833;29;20469;-25
2021/01/16 01:34:52;;;;;;;26.60;17.80;;;1.60;99.90;;;;;;4952404;29;20477;-25
2021/01/16 01:37:19;;;;;;;26.17;19.03;;;1.60;99.90;;;;;;4953356;29;20478;-25
2021/01/16 01:39:45;;;;;;;30.50;17.80;;;1.60;99.90;;;;;;4952876;29;20446;-26
2021/01/16 01:42:16;;;;;;;26.73;18.30;;;1.50;99.90;;;;;;4953675;29;20438;-25
2021/01/16 01:44:45;;;;;;;22.73;16.00;;;1.50;99.90;;;;;;4952774;29;20446;-25
2021/01/16 01:47:12;;;;;;;28.27;16.70;;;1.50;99.90;;;;;;4952487;29;20442;-25
2021/01/16 01:49:40;;;;;;;24.33;17.50;;;1.50;99.90;;;;;;4953091;29;20485;-25
2021/01/16 01:52:08;;;;;;;26.85;18.05;;;1.60;99.90;;;;;;4954119;29;20462;-25
2021/01/16 01:54:36;;;;;;;28.53;17.53;;;1.60;99.90;;;;;;4954577;29;20223;-25
2021/01/16 01:57:04;;;;;;;24.17;17.47;;;1.60;99.90;;;;;;4952840;29;20435;-26
2021/01/16 01:59:35;;;;;;;26.60;16.83;;;1.50;99.90;;;;;;4951907;29;20799;-26
2021/01/16 02:02:04;;;;;;;27.60;18.20;;;1.50;99.90;;;;;;4936221;29;20472;-26
2021/01/16 02:04:32;;;;;;;25.30;18.43;;;1.60;99.90;;;;;;4952241;29;20509;-26
2021/01/16 02:06:59;;;;;;;26.10;17.53;;;1.70;99.90;;;;;;4953438;29;20509;-26
2021/01/16 02:09:26;;;;;;;27.40;19.20;;;1.60;99.90;;;;;;4953627;29;20522;-26
2021/01/16 02:11:54;;;;;;;29.90;18.07;;;1.60;99.90;;;;;;4953677;29;20879;-26
2021/01/16 02:14:27;;;;;;;26.60;18.57;;;1.60;99.90;;;;;;4951386;29;20474;-26
2021/01/16 02:16:56;;;;;;;23.90;16.73;;;1.50;99.90;;;;;;4952377;29;20442;-26
2021/01/16 02:19:38;;;;;;;25.73;18.23;;;1.60;99.90;;;;;;4953277;29;20459;-26
2021/01/16 02:22:06;;;;;;;22.73;17.60;;;1.60;99.90;;;;;;4953462;29;20466;-26
2021/01/16 02:24:39;;;;;;;30.52;19.55;;;1.70;99.90;;;;;;4953137;29;20454;-26
2021/01/16 02:27:26;;;;;;;26.80;17.10;;;1.60;99.90;;;;;;4953228;29;20208;-26
2021/01/16 02:29:53;;;;;;;29.53;17.37;;;1.60;99.90;;;;;;4953010;29;20453;-26
2021/01/16 02:32:21;;;;;;;27.47;18.83;;;1.60;99.90;;;;;;4952767;29;20446;-26
2021/01/16 02:38:20;;;;;;;26.50;18.30;;;1.60;99.90;;;;;;6031013;23;20380;31
2021/01/16 02:40:52;;;;;;;26.53;18.17;;;1.60;99.90;;;;;;4928040;29;20262;-26
2021/01/16 02:43:32;;;;;;;32.87;18.60;;;1.50;99.90;;;;;;4936289;29;20803;-26
2021/01/16 02:46:20;;;;;;;30.47;20.70;;;1.60;99.90;;;;;;4936307;29;20465;-26
2021/01/16 02:49:04;;;;;;;28.67;18.70;;;1.60;99.90;;;;;;4918452;29;20450;-26
2021/01/16 02:51:39;;;;;;;31.20;21.00;;;1.60;99.90;;;;;;4936982;29;20450;-26
2021/01/16 02:54:06;;;;;;;27.80;18.00;;;1.60;99.90;;;;;;4937335;29;20526;-26
2021/01/16 02:56:36;;;;;;;28.00;18.07;;;1.70;99.90;;;;;;4937164;29;20438;-26
2021/01/16 02:59:05;;;;;;;31.50;19.97;;;1.70;99.90;;;;;;4936927;29;20543;-26
2021/01/16 03:01:39;;;;;;;23.90;17.57;;;1.70;99.90;;;;;;4904754;29;20459;-26
2021/01/16 03:04:06;;;;;;;31.37;18.70;;;1.60;99.90;;;;;;4937612;29;20474;-26
2021/01/16 03:06:34;;;;;;;30.73;19.50;;;1.50;99.90;;;;;;4920158;29;20442;-26
2021/01/16 03:09:03;;;;;;;34.08;18.73;;;1.50;99.90;;;;;;4937545;29;20561;-26
2021/01/16 03:11:33;;;;;;;29.93;18.90;;;1.50;99.90;;;;;;4937110;29;20208;-26
2021/01/16 03:14:02;;;;;;;29.90;20.30;;;1.50;99.90;;;;;;4937026;29;20479;-26
2021/01/16 03:16:38;;;;;;;29.90;19.37;;;1.50;99.90;;;;;;4937866;29;20876;-26
2021/01/16 03:19:08;;;;;;;28.30;20.90;;;1.50;99.90;;;;;;4936509;29;21034;-26
2021/01/16 03:21:40;;;;;;;28.83;19.20;;;1.50;99.90;;;;;;4937747;29;20508;-26
2021/01/16 03:24:08;;;;;;;33.97;20.17;;;1.60;99.90;;;;;;4936235;29;20466;-26
2021/01/16 03:26:35;;;;;;;32.40;19.70;;;1.60;99.90;;;;;;4936365;29;20200;-26
2021/01/16 03:29:01;;;;;;;33.70;19.50;;;1.50;99.90;;;;;;4936876;29;20492;-26
2021/01/16 03:31:28;;;;;;;31.30;20.00;;;1.50;99.90;;;;;;4937033;29;20454;-26
2021/01/16 03:33:56;;;;;;;25.53;18.20;;;1.50;99.90;;;;;;4935910;29;20565;-26
2021/01/16 03:36:23;;;;;;;27.63;19.60;;;1.50;99.90;;;;;;4936253;29;20469;-26
2021/01/16 03:38:50;;;;;;;33.00;20.25;;;1.50;99.90;;;;;;4936206;29;20513;-26
2021/01/16 03:41:16;;;;;;;28.70;19.13;;;1.50;99.90;;;;;;4937065;29;20235;-26
2021/01/16 03:43:43;;;;;;;29.40;18.95;;;1.40;99.90;;;;;;4936847;29;20448;-26
2021/01/16 03:46:10;;;;;;;29.65;18.10;;;1.40;99.90;;;;;;4936134;29;20279;-26
2021/01/16 03:48:38;;;;;;;30.67;20.50;;;1.50;99.90;;;;;;4937084;29;20602;-26
2021/01/16 03:51:06;;;;;;;34.67;20.27;;;1.50;99.90;;;;;;4936223;29;20534;-26
2021/01/16 03:53:33;;;;;;;27.17;18.03;;;1.50;99.90;;;;;;4936292;29;20498;-26
2021/01/16 03:56:00;;;;;;;29.58;19.20;;;1.40;99.90;;;;;;4935389;29;20479;-26
2021/01/16 03:58:26;;;;;;;30.93;19.60;;;1.40;99.90;;;;;;4934853;29;20279;-26
2021/01/16 04:00:53;;;;;;;29.97;20.17;;;1.40;99.90;;;;;;4936674;29;20852;-26
2021/01/16 04:03:20;;;;;;;25.30;18.13;;;1.40;99.90;;;;;;4936060;29;20520;-26
2021/01/16 04:05:47;;;;;;;26.93;18.50;;;1.50;99.90;;;;;;4917465;29;20208;-26
2021/01/16 04:08:14;;;;;;;27.87;19.57;;;1.50;99.90;;;;;;4934655;29;20467;-26
2021/01/16 04:10:41;;;;;;;25.70;18.70;;;1.60;99.90;;;;;;4934509;29;20602;-26
2021/01/16 04:13:08;;;;;;;29.77;17.90;;;1.60;99.90;;;;;;4936231;29;20502;-26
2021/01/16 04:15:35;;;;;;;28.77;19.80;;;1.50;99.90;;;;;;4935281;29;20223;-26
2021/01/16 04:18:01;;;;;;;27.77;17.93;;;1.50;99.90;;;;;;4935029;29;20455;-26
2021/01/16 04:20:28;;;;;;;27.48;17.42;;;1.60;99.90;;;;;;4934638;29;20458;-26
2021/01/16 04:22:55;;;;;;;29.42;18.75;;;1.60;99.90;;;;;;4935218;29;20216;-26
2021/01/16 04:25:23;;;;;;;27.37;17.83;;;1.60;99.90;;;;;;4934987;29;20287;-26
2021/01/16 04:27:49;;;;;;;26.53;18.47;;;1.60;99.90;;;;;;4934556;29;20447;-26
2021/01/16 04:30:17;;;;;;;29.40;18.70;;;1.60;99.90;;;;;;4933851;29;20446;-26
2021/01/16 04:32:44;;;;;;;27.23;18.40;;;1.60;99.90;;;;;;4934947;29;20528;-26
2021/01/16 04:35:11;;;;;;;29.80;19.37;;;1.60;99.90;;;;;;4935141;29;20525;-26
2021/01/16 04:37:42;;;;;;;29.43;18.83;;;1.60;99.90;;;;;;4934735;29;20601;-26
2021/01/16 04:40:10;;;;;;;32.23;20.13;;;1.70;99.90;;;;;;4933897;29;20501;-26
2021/01/16 04:42:42;;;;;;;30.03;19.60;;;1.70;99.90;;;;;;4933593;29;20531;-26
2021/01/16 04:45:10;;;;;;;27.83;18.70;;;1.70;99.90;;;;;;4934952;29;21094;-26
2021/01/16 04:47:38;;;;;;;29.80;20.00;;;1.70;99.90;;;;;;4933607;29;20462;-26
2021/01/16 04:50:10;;;;;;;26.83;20.03;;;1.70;99.90;;;;;;4933944;29;20490;-26
2021/01/16 04:52:38;;;;;;;27.83;17.87;;;1.70;99.90;;;;;;4934124;29;20459;-26
2021/01/16 04:55:08;;;;;;;31.53;18.50;;;1.60;99.90;;;;;;4933478;29;20505;-26
2021/01/16 04:57:37;;;;;;;30.73;19.63;;;1.60;99.90;;;;;;4933557;29;20457;-26
2021/01/16 05:00:07;;;;;;;30.13;18.83;;;1.60;99.90;;;;;;4933138;29;20554;-26
2021/01/16 05:02:38;;;;;;;26.90;18.33;;;1.50;99.90;;;;;;4932387;29;21259;-26
2021/01/16 05:05:08;;;;;;;29.92;19.83;;;1.50;99.90;;;;;;4932585;29;20443;-26
2021/01/16 05:07:35;;;;;;;28.53;19.83;;;1.50;99.90;;;;;;4933240;29;20224;-26
2021/01/16 05:10:04;;;;;;;32.07;20.17;;;1.60;99.90;;;;;;4933900;29;20514;-26
2021/01/16 05:13:03;;;;;;;32.77;21.13;;;1.60;99.90;;;;;;4934396;29;20780;-26
2021/01/16 05:15:32;;;;;;;36.05;19.23;;;1.60;99.90;;;;;;4934705;29;20921;-26
2021/01/16 05:18:04;;;;;;;30.90;20.20;;;1.60;99.90;;;;;;4934657;29;20549;-26
2021/01/16 05:20:33;;;;;;;36.80;22.90;;;1.60;99.90;;;;;;4934097;29;20941;-26
2021/01/16 05:23:15;;;;;;;34.10;21.17;;;1.60;99.90;;;;;;4934190;29;20502;-26
2021/01/16 05:25:45;;;;;;;25.40;19.00;;;1.60;99.90;;;;;;4933831;29;20862;-26
2021/01/16 05:28:14;;;;;;;29.50;18.23;;;1.60;99.90;;;;;;4932246;29;20439;-26
2021/01/16 05:31:02;;;;;;;32.57;21.20;;;1.70;99.90;;;;;;4933162;29;20468;-26
2021/01/16 05:33:30;;;;;;;28.53;17.33;;;1.60;99.90;;;;;;4927628;29;20985;-26
2021/01/16 05:36:00;;;;;;;28.67;18.20;;;1.60;99.90;;;;;;4933299;29;20744;-26
2021/01/16 05:38:28;;;;;;;28.40;17.70;;;1.50;99.90;;;;;;4933176;29;21295;-26
2021/01/16 05:40:56;;;;;;;32.53;21.77;;;1.50;99.90;;;;;;4933944;29;20438;-26
2021/01/16 05:43:25;;;;;;;28.17;17.63;;;1.50;99.90;;;;;;4933915;29;20466;-26
2021/01/16 05:45:58;;;;;;;25.63;18.57;;;1.50;99.90;;;;;;4932676;29;20451;-26
2021/01/16 05:48:25;;;;;;;29.70;19.40;;;1.50;99.90;;;;;;4932935;29;20451;-26
2021/01/16 05:50:54;;;;;;;27.73;17.77;;;1.50;99.90;;;;;;4933317;29;20427;-27
2021/01/16 05:53:22;;;;;;;29.63;20.50;;;1.50;99.90;;;;;;4933167;29;20485;-26
2021/01/16 05:55:48;;;;;;;27.07;18.80;;;1.50;99.90;;;;;;4933487;29;20447;-26
2021/01/16 05:58:18;;;;;;;29.47;19.37;;;1.50;99.90;;;;;;4914971;29;20530;-26
2021/01/16 06:00:50;;;;;;;30.53;20.23;;;1.50;99.90;;;;;;4931478;29;20567;-26
2021/01/16 06:03:18;;;;;;;23.30;16.77;;;1.60;99.90;;;;;;4932338;29;20447;-26
2021/01/16 06:05:49;;;;;;;28.67;20.27;;;1.50;99.90;;;;;;4932696;29;20989;-26
2021/01/16 06:08:16;;;;;;;24.80;17.57;;;1.50;99.90;;;;;;4932416;29;20455;-26
2021/01/16 06:10:44;;;;;;;24.67;16.30;;;1.50;99.90;;;;;;4933202;29;20545;-26
2021/01/16 06:13:15;;;;;;;29.35;18.15;;;1.60;99.90;;;;;;4932982;29;20451;-26
2021/01/16 06:15:45;;;;;;;29.10;21.50;;;1.60;99.90;;;;;;4933267;29;20197;-26
2021/01/16 06:18:22;;;;;;;32.67;19.60;;;1.60;99.90;;;;;;4937520;29;20506;-26
2021/01/16 06:20:51;;;;;;;26.70;17.43;;;1.50;99.90;;;;;;4935651;29;20438;-26
2021/01/16 06:23:20;;;;;;;24.40;18.40;;;1.50;99.90;;;;;;4936627;29;20522;-26
2021/01/16 06:25:49;;;;;;;28.10;18.93;;;1.50;99.90;;;;;;4936315;29;20474;-26
2021/01/16 06:28:21;;;;;;;36.57;20.63;;;1.50;99.90;;;;;;4936391;29;20443;-26
2021/01/16 06:30:53;;;;;;;29.33;18.47;;;1.50;99.90;;;;;;4936549;29;20534;-26
2021/01/16 06:33:26;;;;;;;26.00;17.77;;;1.50;99.90;;;;;;4936560;29;20449;-26
2021/01/16 06:36:01;;;;;;;30.40;19.40;;;1.50;99.90;;;;;;4936063;29;20445;-26
2021/01/16 06:38:31;;;;;;;32.80;19.80;;;1.50;99.90;;;;;;4936107;29;21084;-26
2021/01/16 06:41:14;;;;;;;30.30;19.07;;;1.50;99.90;;;;;;4934589;29;20439;-26
2021/01/16 06:43:42;;;;;;;29.00;19.90;;;1.50;99.90;;;;;;4934301;29;20438;-26
2021/01/16 06:46:12;;;;;;;28.63;18.77;;;1.50;99.90;;;;;;4936034;29;20538;-26
2021/01/16 06:48:45;;;;;;;25.00;18.23;;;1.50;99.90;;;;;;4935005;29;20451;-26
2021/01/16 06:51:22;;;;;;;29.47;18.07;;;1.50;99.90;;;;;;4934766;29;20740;-26
2021/01/16 06:53:49;;;;;;;28.90;19.40;;;1.50;99.90;;;;;;4936764;29;20500;-26
2021/01/16 06:56:25;;;;;;;28.70;18.47;;;1.50;99.90;;;;;;4935914;29;20438;-26
2021/01/16 06:58:55;;;;;;;31.40;19.87;;;1.50;99.90;;;;;;4934435;29;20880;-26
2021/01/16 07:01:30;;;;;;;26.97;18.90;;;1.50;99.90;;;;;;4933774;29;20443;-26
2021/01/16 07:04:00;;;;;;;29.10;19.10;;;1.50;99.90;;;;;;4935693;29;20450;-26
2021/01/16 07:06:26;;;;;;;29.47;19.37;;;1.60;99.90;;;;;;4932392;29;20439;-26
2021/01/16 07:08:53;;;;;;;28.27;18.63;;;1.60;99.90;;;;;;4934880;29;20935;-26
2021/01/16 07:11:20;;;;;;;33.13;18.03;;;1.50;99.90;;;;;;4933152;29;20473;-26
2021/01/16 07:13:50;;;;;;;33.63;17.40;;;1.50;99.90;;;;;;4933396;29;20471;-26
2021/01/16 07:16:18;;;;;;;34.60;19.27;;;1.50;99.90;;;;;;4933748;29;20766;-26
2021/01/16 07:18:46;;;;;;;29.02;17.88;;;1.40;99.90;;;;;;4933777;29;20918;-26
2021/01/16 07:21:20;;;;;;;31.57;20.27;;;1.50;99.90;;;;;;4932630;29;20294;-26
2021/01/16 07:23:47;;;;;;;24.60;17.33;;;1.40;99.90;;;;;;4932820;29;20517;-26
2021/01/16 07:26:14;;;;;;;30.83;19.50;;;1.40;99.90;;;;;;4932880;29;21228;-26
2021/01/16 07:28:42;;;;;;;28.87;19.20;;;1.40;99.90;;;;;;4933695;29;20447;-26
2021/01/16 07:31:09;;;;;;;36.37;21.20;;;1.30;99.90;;;;;;4934090;29;20447;-26
2021/01/16 07:33:36;;;;;;;45.50;26.77;;;1.40;99.90;;;;;;4933236;29;20559;-26
2021/01/16 07:36:05;;;;;;;36.17;21.27;;;1.40;99.90;;;;;;4933456;29;20443;-26
2021/01/16 07:38:35;;;;;;;31.03;19.83;;;1.40;99.90;;;;;;4931980;29;20565;-26
2021/01/16 07:41:08;;;;;;;31.00;21.03;;;1.40;99.90;;;;;;4931876;29;20450;-26
2021/01/16 07:43:56;;;;;;;30.70;19.83;;;1.50;99.90;;;;;;4931713;29;20451;-26
2021/01/16 07:46:29;;;;;;;32.03;20.23;;;1.60;99.90;;;;;;4934104;29;20449;-26
2021/01/16 07:48:58;;;;;;;31.50;19.80;;;1.60;99.90;;;;;;4933271;29;20459;-26
2021/01/16 07:51:32;;;;;;;30.55;20.27;;;1.60;99.90;;;;;;4932398;29;20896;-26
2021/01/16 07:54:08;;;;;;;32.10;21.40;;;1.60;99.90;;;;;;4933859;29;20242;-26
2021/01/16 07:56:37;;;;;;;29.13;19.73;;;1.60;99.90;;;;;;4933605;29;20450;-26
2021/01/16 07:59:17;;;;;;;35.20;23.30;;;1.60;99.90;;;;;;4933859;29;20447;-26
2021/01/16 08:02:30;;;;;;;31.90;20.63;;;1.60;99.90;;;;;;4931991;29;20455;-26
2021/01/16 08:05:07;;;;;;;32.63;21.27;;;1.70;99.90;;;;;;4854204;29;20451;-26
2021/01/16 08:08:15;;;;;;;32.17;20.50;;;1.60;99.90;;;;;;4920465;29;20315;-26
2021/01/16 08:10:44;;;;;;;31.80;19.00;;;1.70;99.90;;;;;;4933376;29;20869;-26
2021/01/16 08:13:12;;;;;;;28.70;20.50;;;1.90;99.90;;;;;;4932329;29;20528;-26
2021/01/16 08:15:41;;;;;;;32.27;20.57;;;2.00;99.90;;;;;;4931940;29;20475;-26
2021/01/16 08:18:12;;;;;;;34.07;21.67;;;2.00;99.90;;;;;;4932118;29;20482;-26
2021/01/16 08:20:43;;;;;;;36.00;22.60;;;2.00;99.90;;;;;;4930859;29;20518;-26
2021/01/16 08:23:12;;;;;;;39.80;22.83;;;2.00;99.90;;;;;;4931765;29;20861;-26
2021/01/16 08:25:38;;;;;;;32.27;23.27;;;1.90;99.90;;;;;;4931695;29;20439;-26
2021/01/16 08:28:06;;;;;;;33.93;22.93;;;1.90;99.90;;;;;;4934574;29;20744;-26
2021/01/16 08:30:35;;;;;;;28.17;19.20;;;1.90;99.90;;;;;;4940230;29;20443;-25
2021/01/16 08:33:06;;;;;;;32.30;19.40;;;1.90;99.90;;;;;;4935347;29;20673;-25
2021/01/16 08:35:43;;;;;;;32.53;19.65;;;1.90;99.90;;;;;;4937943;29;21083;-24
2021/01/16 08:38:23;;;;;;;23.90;18.10;;;2.00;99.90;;;;;;4937071;28;20898;-26
2021/01/16 08:40:54;;;;;;;29.93;19.67;;;1.80;99.90;;;;;;4918170;29;21148;-26
2021/01/16 08:43:31;;;;;;;30.93;20.00;;;1.80;99.90;;;;;;4915158;29;20731;-26
2021/01/16 08:46:12;;;;;;;36.72;20.67;;;1.90;99.90;;;;;;4919502;29;20764;-26
2021/01/16 08:49:23;;;;;;;35.00;21.43;;;2.00;99.90;;;;;;4913578;29;20611;-26
2021/01/16 08:51:55;;;;;;;33.97;21.33;;;2.10;99.90;;;;;;4908870;29;20579;-26
2021/01/16 08:54:24;;;;;;;31.17;19.83;;;2.10;99.90;;;;;;4910896;29;20488;-26
2021/01/16 08:56:52;;;;;;;33.83;20.60;;;2.20;99.90;;;;;;4910889;29;20801;-26
2021/01/16 08:59:22;;;;;;;34.13;20.90;;;2.20;99.90;;;;;;4927391;29;20736;-26
2021/01/16 09:01:51;;;;;;;29.93;19.03;;;2.30;99.90;;;;;;4926363;29;20471;-26
2021/01/16 09:04:23;;;;;;;36.27;21.43;;;2.30;99.90;;;;;;4928918;29;20451;-26
2021/01/16 09:06:52;;;;;;;33.43;23.37;;;2.40;99.90;;;;;;4927019;29;21197;-26
2021/01/16 09:09:25;;;;;;;31.10;21.23;;;2.50;99.90;;;;;;4926927;29;20463;-26
2021/01/16 09:12:05;;;;;;;28.33;21.07;;;2.60;99.90;;;;;;4913382;29;20444;-26
2021/01/16 09:14:33;;;;;;;37.47;21.53;;;2.60;99.90;;;;;;4900747;29;20688;-26
2021/01/16 09:17:15;;;;;;;29.43;20.30;;;2.70;99.90;;;;;;4904068;29;20440;-26
2021/01/16 09:19:42;;;;;;;31.07;22.30;;;2.80;99.90;;;;;;4909160;29;20456;-26
2021/01/16 09:22:21;;;;;;;36.13;23.47;;;2.80;99.90;;;;;;4909640;29;20546;-26
2021/01/16 09:24:48;;;;;;;31.83;21.30;;;2.90;99.90;;;;;;4905517;29;20542;-27
2021/01/16 09:27:28;;;;;;;36.57;23.17;;;3.00;99.90;;;;;;4905460;29;20470;-26
2021/01/16 09:29:57;;;;;;;31.03;21.40;;;3.10;99.90;;;;;;4907520;29;20456;-26
2021/01/16 09:32:32;;;;;;;33.10;23.33;;;3.00;99.90;;;;;;4905531;29;20754;-26
2021/01/16 09:35:00;;;;;;;36.67;20.40;;;3.10;99.90;;;;;;4904618;29;20760;-26
2021/01/16 09:37:29;;;;;;;30.03;21.50;;;3.10;99.90;;;;;;4905958;29;20597;-26
2021/01/16 09:40:11;;;;;;;27.73;19.83;;;3.10;99.90;;;;;;4919024;29;21090;-26
2021/01/16 09:42:46;;;;;;;33.87;22.93;;;3.10;99.90;;;;;;4923655;29;20438;-26
2021/01/16 09:45:15;;;;;;;36.30;20.73;;;3.10;99.90;;;;;;4925523;29;20442;-26
2021/01/16 09:47:51;;;;;;;31.60;20.90;;;2.90;99.90;;;;;;4924428;29;20541;-26
2021/01/16 09:50:20;;;;;;;32.10;22.20;;;2.90;99.90;;;;;;4905801;29;20467;-26
2021/01/16 09:52:52;;;;;;;28.07;20.57;;;2.90;99.90;;;;;;4902694;29;20886;-26
2021/01/16 09:55:21;;;;;;;28.20;19.63;;;3.00;99.90;;;;;;4904822;29;21012;-26
2021/01/16 09:57:48;;;;;;;45.43;23.07;;;2.90;99.90;;;;;;4905219;29;20750;-27
2021/01/16 10:00:17;;;;;;;36.10;22.00;;;2.90;99.90;;;;;;4905747;29;20458;-26
2021/01/16 10:02:45;;;;;;;32.10;20.00;;;2.70;99.90;;;;;;4906391;29;20512;-26
2021/01/16 10:05:15;;;;;;;31.00;19.90;;;2.60;99.90;;;;;;4904371;29;20829;-26
2021/01/16 10:07:45;;;;;;;33.77;20.50;;;2.50;99.90;;;;;;4901878;29;20460;-26
2021/01/16 10:10:15;;;;;;;34.10;22.30;;;2.50;99.90;;;;;;4905289;29;20740;-24
2021/01/16 10:12:43;;;;;;;36.93;21.40;;;2.30;99.90;;;;;;4904433;29;20721;-24
2021/01/16 10:15:12;;;;;;;29.07;20.93;;;2.20;99.90;;;;;;4902967;29;20890;-25
2021/01/16 10:17:46;;;;;;;37.83;22.67;;;2.10;99.90;;;;;;4903591;29;20451;-25
2021/01/16 10:20:14;;;;;;;34.67;21.47;;;2.00;99.90;;;;;;4904419;29;20527;-25
2021/01/16 10:22:48;;;;;;;33.47;21.57;;;1.90;99.90;;;;;;4904773;29;20463;-25
2021/01/16 10:25:15;;;;;;;39.53;24.00;;;1.90;99.90;;;;;;4906277;29;20874;-25
2021/01/16 10:27:44;;;;;;;37.60;23.00;;;2.00;99.90;;;;;;4903845;29;20503;-25
2021/01/16 10:30:17;;;;;;;35.03;22.67;;;2.00;99.90;;;;;;4902224;29;20935;-25
2021/01/16 10:32:45;;;;;;;36.97;22.90;;;2.10;99.90;;;;;;4904117;29;20786;-25
2021/01/16 10:35:23;;;;;;;30.57;21.60;;;2.10;99.90;;;;;;4905748;29;20479;-25
2021/01/16 10:37:52;;;;;;;30.03;18.53;;;2.20;99.90;;;;;;4904660;29;20554;-25
2021/01/16 10:40:20;;;;;;;35.07;22.00;;;2.20;99.90;;;;;;4902248;29;20487;-25
2021/01/16 10:42:48;;;;;;;37.77;22.53;;;2.20;99.90;;;;;;4902558;29;20893;-25
2021/01/16 10:45:16;;;;;;;36.50;23.47;;;2.30;99.90;;;;;;4903839;29;20455;-25
2021/01/16 10:47:44;;;;;;;34.33;22.87;;;2.30;99.90;;;;;;4913115;29;20624;-26
2021/01/16 10:50:14;;;;;;;36.80;24.60;;;2.30;99.90;;;;;;4920714;29;20604;-25
2021/01/16 10:52:41;;;;;;;32.27;23.67;;;2.30;99.90;;;;;;4924683;29;20971;-25
2021/01/16 10:55:10;;;;;;;36.43;25.60;;;2.30;99.90;;;;;;4922453;29;20782;-26
2021/01/16 10:57:46;;;;;;;35.47;24.80;;;2.30;99.90;;;;;;4923672;29;20542;-25
2021/01/16 11:00:15;;;;;;;41.53;24.13;;;2.30;99.90;;;;;;4919870;29;20589;-25
2021/01/16 11:02:44;;;;;;;35.97;23.53;;;2.30;99.90;;;;;;4922271;29;20856;-25
2021/01/16 11:05:19;;;;;;;33.73;22.00;;;2.40;99.90;;;;;;4924243;29;20858;-25
2021/01/16 11:07:48;;;;;;;38.47;23.53;;;2.30;99.90;;;;;;4924392;29;20839;-25
2021/01/16 11:10:16;;;;;;;40.13;23.90;;;2.30;99.90;;;;;;4924347;29;20690;-26
2021/01/16 11:12:44;;;;;;;34.17;22.13;;;2.40;99.90;;;;;;4923369;29;20442;-25
2021/01/16 11:15:32;;;;;;;41.17;23.70;;;2.50;99.90;;;;;;4923860;29;20466;-25
2021/01/16 11:18:01;;;;;;;35.90;21.17;;;2.70;99.90;;;;;;4917004;29;20711;-25
2021/01/16 11:20:29;;;;;;;33.47;21.73;;;2.70;99.90;;;;;;4923705;29;20500;-25
2021/01/16 11:23:30;;;;;;;34.67;22.37;;;2.80;99.90;;;;;;4926052;29;20736;-25
2021/01/16 11:26:06;;;;;;;42.03;22.07;;;2.70;99.90;;;;;;4925618;29;20457;-25
2021/01/16 11:28:48;;;;;;;33.93;24.37;;;2.50;99.90;;;;;;4927336;29;20574;-25
2021/01/16 11:31:29;;;;;;;36.90;23.73;;;2.50;99.90;;;;;;4924894;29;20692;-25
2021/01/16 11:34:19;;;;;;;33.67;22.67;;;2.40;99.90;;;;;;4906765;29;20489;-25
2021/01/16 11:37:00;;;;;;;37.03;22.83;;;2.40;99.90;;;;;;4926501;29;20443;-25
2021/01/16 11:39:48;;;;;;;32.47;21.17;;;2.40;99.90;;;;;;4927398;29;20588;-25
2021/01/16 11:42:15;;;;;;;29.97;19.60;;;2.20;99.90;;;;;;4924570;29;20447;-25
2021/01/16 11:44:52;;;;;;;27.60;18.33;;;2.00;99.90;;;;;;4927231;29;20529;-25
2021/01/16 11:47:20;;;;;;;28.70;17.83;;;2.00;99.90;;;;;;4925661;29;20450;-25
2021/01/16 11:49:47;;;;;;;26.60;19.10;;;1.90;99.90;;;;;;4927624;29;20470;-25
2021/01/16 11:52:15;;;;;;;32.83;19.97;;;1.80;99.90;;;;;;4925713;29;20742;-25
2021/01/16 11:54:42;;;;;;;32.43;20.53;;;1.80;99.90;;;;;;4926504;29;20487;-25
2021/01/16 11:57:10;;;;;;;32.20;21.03;;;1.80;99.90;;;;;;4926661;29;20756;-25
2021/01/16 11:59:38;;;;;;;33.90;20.97;;;1.70;99.90;;;;;;4923418;29;20483;-25
2021/01/16 12:02:07;;;;;;;26.50;19.40;;;1.70;99.90;;;;;;4925285;29;20690;-25
2021/01/16 12:04:34;;;;;;;33.10;19.57;;;1.70;99.90;;;;;;4925978;29;20893;-25
2021/01/16 12:07:01;;;;;;;33.83;21.40;;;1.70;99.90;;;;;;4923918;29;20438;-25
2021/01/16 12:09:29;;;;;;;32.20;18.83;;;1.70;99.90;;;;;;4924565;29;20466;-25
2021/01/16 12:12:00;;;;;;;32.97;20.40;;;1.60;99.90;;;;;;4924810;29;20861;-25
2021/01/16 12:14:36;;;;;;;30.13;19.07;;;1.50;99.90;;;;;;4924015;29;20708;-25
2021/01/16 12:17:07;;;;;;;28.37;17.70;;;1.50;99.90;;;;;;4926829;29;20707;-25
2021/01/16 12:19:35;;;;;;;34.87;21.30;;;1.60;99.90;;;;;;4925144;29;20825;-25
2021/01/16 12:22:10;;;;;;;29.60;20.87;;;1.50;99.90;;;;;;4924978;29;20435;-25
2021/01/16 12:24:37;;;;;;;29.53;19.57;;;1.70;99.90;;;;;;4925838;29;20493;-26
2021/01/16 12:27:06;;;;;;;37.60;22.37;;;1.70;99.90;;;;;;4925946;29;20475;-25
2021/01/16 12:29:42;;;;;;;36.10;22.27;;;1.80;99.90;;;;;;4924620;29;20514;-24
2021/01/16 12:32:10;;;;;;;37.40;22.33;;;1.90;99.90;;;;;;4924000;29;20691;-24
2021/01/16 12:34:48;;;;;;;33.53;22.07;;;2.00;99.90;;;;;;4922656;29;20470;-27
2021/01/16 12:37:25;;;;;;;34.07;22.10;;;2.20;99.90;;;;;;4925814;29;20538;-27
2021/01/16 12:39:52;;;;;;;37.10;22.07;;;2.50;99.90;;;;;;4924977;29;20491;-26
2021/01/16 12:42:19;;;;;;;33.43;20.20;;;2.60;99.90;;;;;;4923174;29;20614;-26
2021/01/16 12:44:46;;;;;;;31.87;21.13;;;2.70;99.90;;;;;;4923135;29;20454;-26
2021/01/16 12:47:19;;;;;;;32.43;24.17;;;2.60;99.90;;;;;;4924519;29;20837;-27
2021/01/16 12:49:50;;;;;;;31.43;20.67;;;2.50;99.90;;;;;;4925203;29;20443;-26
2021/01/16 12:52:25;;;;;;;33.40;21.80;;;2.40;99.90;;;;;;4925394;29;20937;-24
2021/01/16 12:55:05;;;;;;;29.60;19.77;;;2.30;99.90;;;;;;4925334;29;20467;-26
2021/01/16 12:57:34;;;;;;;28.90;18.63;;;2.30;99.90;;;;;;4924052;29;20659;-27